Time;durP1;ratioP1;P1;durP2;ratioP2;P2;SDS_P1;SDS_P2;PMS_P1;PMS_P2;Temp;Humidity;BMP_temperature;BMP_pressure;BME280_temperature;BME280_humidity;BME280_pressure;Samples;Min_cycle;Max_cycle;Signal;HPM_P1;HPM_P2
2023/07/31 00:02:00;;;;;;;7.07;1.90;;;;;;;;;;5060843;28;20220;-64
2023/07/31 00:04:26;;;;;;;4.18;1.60;;;;;;;;;;5060715;28;20215;-64
2023/07/31 00:06:52;;;;;;;4.38;2.15;;;;;;;;;;5052865;28;20203;-64
2023/07/31 00:09:19;;;;;;;2.75;1.80;;;;;;;;;;5061999;28;20201;-64
2023/07/31 00:11:46;;;;;;;5.60;1.90;;;;;;;;;;5061072;28;20201;-64
2023/07/31 00:14:13;;;;;;;4.10;1.73;;;;;;;;;;5060655;28;20415;-64
2023/07/31 00:16:40;;;;;;;2.40;1.50;;;;;;;;;;5061148;28;20201;-64
2023/07/31 00:19:06;;;;;;;4.20;1.80;;;;;;;;;;5060952;28;20208;-64
2023/07/31 00:21:32;;;;;;;5.05;1.88;;;;;;;;;;5060858;28;20216;-64
2023/07/31 00:23:58;;;;;;;3.53;1.90;;;;;;;;;;5060878;28;20505;-64
2023/07/31 00:26:25;;;;;;;2.25;1.60;;;;;;;;;;5061844;28;20437;-64
2023/07/31 00:28:51;;;;;;;2.50;1.83;;;;;;;;;;5061863;28;20216;-64
2023/07/31 00:31:18;;;;;;;3.05;1.65;;;;;;;;;;5061920;28;20205;-64
2023/07/31 00:33:45;;;;;;;3.63;1.90;;;;;;;;;;5061524;28;20224;-64
2023/07/31 00:36:11;;;;;;;6.55;1.80;;;;;;;;;;5061774;28;20243;-64
2023/07/31 00:38:37;;;;;;;4.32;1.70;;;;;;;;;;5061644;28;20201;-64
2023/07/31 00:41:04;;;;;;;3.83;1.73;;;;;;;;;;5061641;28;20205;-64
2023/07/31 00:43:30;;;;;;;3.20;1.70;;;;;;;;;;5061256;28;20197;-64
2023/07/31 00:45:57;;;;;;;1.85;1.73;;;;;;;;;;5061841;28;20283;-64
2023/07/31 00:48:24;;;;;;;5.45;1.70;;;;;;;;;;5061658;28;20412;-64
2023/07/31 00:50:51;;;;;;;3.92;1.40;;;;;;;;;;5061549;28;20208;-64
2023/07/31 00:53:17;;;;;;;4.68;1.45;;;;;;;;;;5061276;28;20221;-64
2023/07/31 00:55:43;;;;;;;3.20;1.70;;;;;;;;;;5061385;28;20203;-64
2023/07/31 00:58:10;;;;;;;3.60;2.00;;;;;;;;;;5061421;28;20204;-64
2023/07/31 01:00:36;;;;;;;2.65;1.75;;;;;;;;;;5061595;28;20207;-64
2023/07/31 01:03:02;;;;;;;6.72;2.38;;;;;;;;;;5065487;28;20205;-64
2023/07/31 01:05:34;;;;;;;1.92;1.73;;;;;;;;;;5065474;28;20208;-64
2023/07/31 01:08:09;;;;;;;5.43;1.52;;;;;;;;;;5057707;28;20208;-64
2023/07/31 01:10:37;;;;;;;3.78;1.83;;;;;;;;;;5065166;28;20207;-64
2023/07/31 01:13:04;;;;;;;2.63;1.92;;;;;;;;;;5065010;28;20217;-64
2023/07/31 01:15:30;;;;;;;3.60;1.75;;;;;;;;;;5065135;28;20268;-64
2023/07/31 01:17:57;;;;;;;4.40;1.63;;;;;;;;;;5056871;28;20201;-64
2023/07/31 01:20:24;;;;;;;4.20;1.98;;;;;;;;;;5065488;28;20208;-64
2023/07/31 01:23:09;;;;;;;4.43;1.63;;;;;;;;;;5064681;28;20203;-64
2023/07/31 01:25:50;;;;;;;2.78;1.60;;;;;;;;;;5065035;28;20201;-64
2023/07/31 01:28:21;;;;;;;6.07;1.88;;;;;;;;;;5062828;28;20540;-64
2023/07/31 01:30:48;;;;;;;7.72;2.08;;;;;;;;;;5064640;28;20201;-64
2023/07/31 01:33:16;;;;;;;3.50;2.05;;;;;;;;;;5064435;28;20477;-64
2023/07/31 01:35:44;;;;;;;2.72;1.70;;;;;;;;;;5064827;28;20568;-64
2023/07/31 01:38:10;;;;;;;3.28;1.65;;;;;;;;;;5064261;28;20216;-64
2023/07/31 01:40:36;;;;;;;1.90;1.80;;;;;;;;;;5064908;28;20625;-64
2023/07/31 01:43:03;;;;;;;3.28;1.95;;;;;;;;;;5064536;28;20197;-64
2023/07/31 01:45:30;;;;;;;3.40;1.80;;;;;;;;;;5064726;28;20450;-64
2023/07/31 01:47:57;;;;;;;5.07;1.83;;;;;;;;;;5064501;28;20227;-64
2023/07/31 01:50:23;;;;;;;5.97;2.17;;;;;;;;;;5064393;28;20201;-64
2023/07/31 01:52:49;;;;;;;1.92;1.63;;;;;;;;;;5064021;28;20272;-64
2023/07/31 01:55:16;;;;;;;1.80;1.70;;;;;;;;;;5064561;28;20208;-64
2023/07/31 01:57:42;;;;;;;5.35;1.60;;;;;;;;;;5064161;28;20207;-64
2023/07/31 02:00:08;;;;;;;4.78;1.70;;;;;;;;;;5064398;28;20414;-64
2023/07/31 02:02:36;;;;;;;3.08;1.63;;;;;;;;;;5063816;28;20205;-64
2023/07/31 02:05:02;;;;;;;6.13;1.92;;;;;;;;;;5064235;28;20264;-64
2023/07/31 02:07:29;;;;;;;2.83;2.00;;;;;;;;;;5064162;28;20201;-64
2023/07/31 02:09:55;;;;;;;2.20;2.00;;;;;;;;;;5063947;28;20201;-64
2023/07/31 02:12:21;;;;;;;3.03;1.95;;;;;;;;;;5063340;28;20203;-64
2023/07/31 02:14:47;;;;;;;3.42;1.70;;;;;;;;;;5063764;28;20221;-64
2023/07/31 02:17:14;;;;;;;3.20;1.98;;;;;;;;;;5063995;28;20205;-64
2023/07/31 02:19:41;;;;;;;1.83;1.73;;;;;;;;;;5063783;28;20205;-64
2023/07/31 02:22:08;;;;;;;3.55;1.85;;;;;;;;;;5064158;28;20583;-64
2023/07/31 02:24:34;;;;;;;4.25;1.85;;;;;;;;;;5063692;28;20197;-64
2023/07/31 02:27:00;;;;;;;5.43;2.10;;;;;;;;;;5063864;28;20221;-64
2023/07/31 02:29:26;;;;;;;7.43;1.75;;;;;;;;;;5063764;28;20197;-64
2023/07/31 02:31:53;;;;;;;2.92;1.63;;;;;;;;;;5063440;28;20207;-64
2023/07/31 02:34:19;;;;;;;1.98;1.77;;;;;;;;;;5062995;28;20245;-64
2023/07/31 02:36:47;;;;;;;2.50;1.73;;;;;;;;;;5063364;28;20197;-64
2023/07/31 02:39:13;;;;;;;4.53;2.03;;;;;;;;;;5063625;28;20204;-64
2023/07/31 02:41:39;;;;;;;1.33;1.25;;;;;;;;;;5063232;28;20203;-64
2023/07/31 02:44:06;;;;;;;2.60;1.73;;;;;;;;;;5063306;28;20205;-64
2023/07/31 02:46:32;;;;;;;5.13;1.92;;;;;;;;;;5063267;28;20193;-64
2023/07/31 02:48:58;;;;;;;4.55;1.70;;;;;;;;;;5063118;28;20213;-64
2023/07/31 02:51:24;;;;;;;1.98;1.58;;;;;;;;;;5063378;28;20204;-64
2023/07/31 02:53:52;;;;;;;2.22;1.58;;;;;;;;;;5063094;28;20429;-64
2023/07/31 02:56:18;;;;;;;3.25;1.73;;;;;;;;;;5063135;28;20197;-64
2023/07/31 02:58:44;;;;;;;6.85;2.00;;;;;;;;;;5063032;28;20220;-64
2023/07/31 03:01:11;;;;;;;2.97;2.13;;;;;;;;;;5062940;28;20205;-64
2023/07/31 03:03:37;;;;;;;3.47;1.42;;;;;;;;;;5062756;28;20388;-64
2023/07/31 03:06:03;;;;;;;5.05;1.85;;;;;;;;;;5063156;28;20197;-64
2023/07/31 03:08:30;;;;;;;3.95;1.75;;;;;;;;;;5062908;28;20220;-64
2023/07/31 03:10:58;;;;;;;4.45;1.90;;;;;;;;;;5062825;28;20508;-64
2023/07/31 03:13:25;;;;;;;7.35;2.20;;;;;;;;;;5062600;28;20240;-64
2023/07/31 03:15:51;;;;;;;4.90;2.50;;;;;;;;;;5062666;28;20197;-64
2023/07/31 03:18:17;;;;;;;4.10;2.10;;;;;;;;;;5062909;28;20222;-64
2023/07/31 03:20:44;;;;;;;3.58;2.00;;;;;;;;;;5062697;28;20212;-64
2023/07/31 03:23:10;;;;;;;2.15;1.60;;;;;;;;;;5062149;28;20204;-64
2023/07/31 03:25:36;;;;;;;4.13;2.10;;;;;;;;;;5062367;28;20204;-64
2023/07/31 03:28:04;;;;;;;5.38;1.75;;;;;;;;;;5062692;28;20217;-64
2023/07/31 03:30:30;;;;;;;2.35;1.80;;;;;;;;;;5063024;28;20205;-64
2023/07/31 03:32:57;;;;;;;4.15;1.80;;;;;;;;;;5062427;28;20209;-64
2023/07/31 03:35:23;;;;;;;3.03;1.77;;;;;;;;;;5062520;28;20220;-64
2023/07/31 03:37:49;;;;;;;3.17;1.85;;;;;;;;;;5062270;28;20212;-64
2023/07/31 03:40:15;;;;;;;5.15;1.63;;;;;;;;;;5062483;28;20724;-64
2023/07/31 03:42:42;;;;;;;3.00;1.70;;;;;;;;;;5062112;28;20197;-64
2023/07/31 03:45:10;;;;;;;2.72;1.50;;;;;;;;;;5062194;28;20199;-64
2023/07/31 03:47:36;;;;;;;1.60;1.50;;;;;;;;;;5062317;28;20197;-64
2023/07/31 03:50:03;;;;;;;3.15;2.22;;;;;;;;;;5062161;28;20307;-64
2023/07/31 03:52:29;;;;;;;3.35;1.92;;;;;;;;;;5062180;28;20220;-64
2023/07/31 03:54:56;;;;;;;3.88;2.00;;;;;;;;;;5062141;28;20217;-64
2023/07/31 03:57:23;;;;;;;4.35;2.10;;;;;;;;;;5062358;28;20201;-64
2023/07/31 03:59:49;;;;;;;3.17;2.05;;;;;;;;;;5061886;28;20264;-64
2023/07/31 04:02:18;;;;;;;3.55;2.10;;;;;;;;;;5062201;28;20208;-64
2023/07/31 04:04:44;;;;;;;2.97;2.08;;;;;;;;;;5062267;28;20193;-64
2023/07/31 04:07:11;;;;;;;4.50;1.60;;;;;;;;;;5062006;28;20205;-64
2023/07/31 04:09:37;;;;;;;2.72;2.45;;;;;;;;;;5061877;28;20221;-64
2023/07/31 04:12:04;;;;;;;4.18;1.90;;;;;;;;;;5061661;28;20203;-64
2023/07/31 04:14:30;;;;;;;4.25;2.35;;;;;;;;;;5061498;28;20220;-64
2023/07/31 04:16:56;;;;;;;3.00;2.28;;;;;;;;;;5061724;28;20204;-66
2023/07/31 04:19:24;;;;;;;5.18;2.22;;;;;;;;;;5061832;28;20197;-66
2023/07/31 04:21:50;;;;;;;2.20;2.00;;;;;;;;;;5061836;28;20396;-66
2023/07/31 04:24:23;;;;;;;1.88;1.58;;;;;;;;;;5061781;28;20193;-66
2023/07/31 04:26:50;;;;;;;2.45;2.08;;;;;;;;;;5061506;28;20201;-66
2023/07/31 04:29:16;;;;;;;5.63;2.00;;;;;;;;;;5062052;28;20204;-67
2023/07/31 04:31:43;;;;;;;4.40;1.92;;;;;;;;;;5061795;28;20243;-67
2023/07/31 04:34:09;;;;;;;3.72;2.10;;;;;;;;;;5061596;28;20217;-67
2023/07/31 04:36:37;;;;;;;2.55;1.90;;;;;;;;;;5065184;28;20269;-67
2023/07/31 04:39:03;;;;;;;4.10;2.10;;;;;;;;;;5065684;28;20427;-67
2023/07/31 04:41:29;;;;;;;4.20;2.28;;;;;;;;;;5065597;28;20204;-67
2023/07/31 04:43:55;;;;;;;2.85;2.28;;;;;;;;;;5065447;28;20203;-67
2023/07/31 04:46:22;;;;;;;3.08;2.20;;;;;;;;;;5065686;28;20203;-67
2023/07/31 04:48:48;;;;;;;3.13;2.20;;;;;;;;;;5065609;28;20383;-67
2023/07/31 04:51:14;;;;;;;5.70;2.35;;;;;;;;;;5065624;28;20197;-66
2023/07/31 04:53:42;;;;;;;7.28;2.30;;;;;;;;;;5065146;28;20264;-66
2023/07/31 04:56:09;;;;;;;7.80;2.10;;;;;;;;;;5057353;28;20198;-66
2023/07/31 04:58:35;;;;;;;2.08;1.85;;;;;;;;;;5065660;28;20207;-66
2023/07/31 05:01:01;;;;;;;2.20;2.10;;;;;;;;;;5065240;28;20508;-66
2023/07/31 05:03:27;;;;;;;2.17;1.83;;;;;;;;;;5065329;28;20197;-66
2023/07/31 05:05:54;;;;;;;2.08;1.90;;;;;;;;;;5065223;28;20201;-66
2023/07/31 05:08:20;;;;;;;1.67;1.52;;;;;;;;;;5065225;28;20201;-66
2023/07/31 05:10:48;;;;;;;2.65;1.80;;;;;;;;;;5065099;28;20306;-66
2023/07/31 05:13:14;;;;;;;2.85;2.00;;;;;;;;;;5065144;28;20203;-66
2023/07/31 05:15:41;;;;;;;3.28;1.92;;;;;;;;;;5065003;28;20217;-66
2023/07/31 05:18:08;;;;;;;4.53;2.00;;;;;;;;;;5064983;28;20197;-66
2023/07/31 05:20:34;;;;;;;3.97;2.00;;;;;;;;;;5065202;28;20201;-67
2023/07/31 05:23:00;;;;;;;6.55;2.10;;;;;;;;;;5064561;28;20204;-66
2023/07/31 05:25:26;;;;;;;3.35;1.92;;;;;;;;;;5065288;28;20481;-66
2023/07/31 05:27:54;;;;;;;3.38;2.15;;;;;;;;;;5064703;28;20216;-66
2023/07/31 05:30:21;;;;;;;7.10;2.25;;;;;;;;;;5065212;28;20197;-66
2023/07/31 05:32:47;;;;;;;2.03;1.83;;;;;;;;;;5064496;28;20209;-66
2023/07/31 05:35:13;;;;;;;3.88;2.00;;;;;;;;;;5064708;28;20223;-66
2023/07/31 05:37:40;;;;;;;3.00;1.70;;;;;;;;;;5064588;28;20395;-67
2023/07/31 05:40:07;;;;;;;5.13;2.38;;;;;;;;;;5064875;28;20217;-66
2023/07/31 05:42:34;;;;;;;4.95;2.20;;;;;;;;;;5064650;28;20193;-66
2023/07/31 05:45:02;;;;;;;2.28;2.13;;;;;;;;;;5064363;28;20200;-66
2023/07/31 05:47:28;;;;;;;2.97;2.05;;;;;;;;;;5063701;28;20505;-67
2023/07/31 05:49:54;;;;;;;5.32;2.08;;;;;;;;;;5064748;28;20223;-66
2023/07/31 05:52:21;;;;;;;2.22;2.00;;;;;;;;;;5064259;28;20198;-66
2023/07/31 05:54:47;;;;;;;2.83;1.92;;;;;;;;;;5064288;28;20221;-66
2023/07/31 05:57:13;;;;;;;3.97;1.85;;;;;;;;;;5064290;28;20197;-66
2023/07/31 05:59:39;;;;;;;4.40;2.33;;;;;;;;;;5064315;28;20519;-66
2023/07/31 06:02:07;;;;;;;2.45;1.83;;;;;;;;;;5063983;28;20408;-66
2023/07/31 06:04:33;;;;;;;1.90;1.80;;;;;;;;;;5063975;28;20499;-66
2023/07/31 06:07:00;;;;;;;3.45;1.95;;;;;;;;;;5063945;28;20208;-66
2023/07/31 06:09:27;;;;;;;10.15;2.10;;;;;;;;;;5064004;28;20204;-66
2023/07/31 06:11:53;;;;;;;6.90;2.08;;;;;;;;;;5064067;28;20197;-66
2023/07/31 06:14:19;;;;;;;6.28;1.58;;;;;;;;;;5063977;28;20411;-66
2023/07/31 06:16:46;;;;;;;3.90;2.08;;;;;;;;;;5063775;28;20205;-66
2023/07/31 06:19:13;;;;;;;5.68;2.08;;;;;;;;;;5063828;28;20539;-66
2023/07/31 06:21:41;;;;;;;2.78;2.00;;;;;;;;;;5064182;28;20204;-67
2023/07/31 06:24:08;;;;;;;5.90;2.40;;;;;;;;;;5063768;28;20207;-54
2023/07/31 06:26:34;;;;;;;3.63;1.95;;;;;;;;;;5057741;28;20418;-55
2023/07/31 06:29:00;;;;;;;2.92;2.20;;;;;;;;;;5050381;28;20240;-55
2023/07/31 06:31:27;;;;;;;3.40;1.88;;;;;;;;;;5058496;28;20213;-53
2023/07/31 06:33:53;;;;;;;5.00;2.08;;;;;;;;;;5057907;28;20288;-53
2023/07/31 06:36:21;;;;;;;6.05;2.08;;;;;;;;;;5058508;28;20232;-54
2023/07/31 06:38:47;;;;;;;4.55;2.08;;;;;;;;;;5058072;28;20251;-53
2023/07/31 06:41:14;;;;;;;3.97;1.73;;;;;;;;;;5039011;28;20209;-53
2023/07/31 06:43:40;;;;;;;3.17;2.00;;;;;;;;;;5047472;28;20229;-54
2023/07/31 06:46:07;;;;;;;7.82;1.88;;;;;;;;;;5041277;28;20228;-53
2023/07/31 06:48:33;;;;;;;5.07;2.25;;;;;;;;;;5056927;28;20532;-53
2023/07/31 06:50:59;;;;;;;4.00;1.80;;;;;;;;;;5051144;28;20220;-56
2023/07/31 06:53:27;;;;;;;4.43;1.92;;;;;;;;;;5058261;28;20213;-55
2023/07/31 06:55:54;;;;;;;3.40;1.70;;;;;;;;;;5058372;28;20225;-53
2023/07/31 06:58:20;;;;;;;5.47;2.00;;;;;;;;;;5058262;28;20672;-53
2023/07/31 07:00:49;;;;;;;5.03;1.67;;;;;;;;;;5058302;28;20217;-57
2023/07/31 07:03:15;;;;;;;5.25;1.50;;;;;;;;;;5057796;28;20209;-55
2023/07/31 07:05:41;;;;;;;2.35;1.45;;;;;;;;;;5049735;28;20275;-56
2023/07/31 07:08:08;;;;;;;5.97;2.00;;;;;;;;;;5054722;28;20213;-56
2023/07/31 07:10:35;;;;;;;7.03;1.63;;;;;;;;;;5048282;28;20547;-54
2023/07/31 07:13:02;;;;;;;3.00;1.48;;;;;;;;;;5057410;28;20205;-54
2023/07/31 07:15:28;;;;;;;1.98;1.38;;;;;;;;;;5057589;28;20225;-56
2023/07/31 07:17:55;;;;;;;5.60;1.38;;;;;;;;;;5057425;28;20217;-54
2023/07/31 07:20:21;;;;;;;5.78;1.40;;;;;;;;;;5057557;28;20276;-55
2023/07/31 07:22:47;;;;;;;2.20;1.45;;;;;;;;;;5057038;28;20276;-56
2023/07/31 07:25:14;;;;;;;4.90;1.75;;;;;;;;;;5057352;28;20205;-55
2023/07/31 07:27:42;;;;;;;3.53;1.58;;;;;;;;;;5056750;28;20229;-55
2023/07/31 07:30:10;;;;;;;3.05;1.50;;;;;;;;;;5057622;28;20212;-54
2023/07/31 07:32:36;;;;;;;3.63;1.77;;;;;;;;;;5057756;28;20450;-54
2023/07/31 07:35:03;;;;;;;4.95;1.90;;;;;;;;;;5057533;28;20252;-56
2023/07/31 07:37:29;;;;;;;3.65;1.85;;;;;;;;;;5057429;28;20475;-53
2023/07/31 07:39:57;;;;;;;2.58;1.67;;;;;;;;;;5055910;28;20551;-55
2023/07/31 07:42:23;;;;;;;3.10;1.90;;;;;;;;;;5042200;28;20209;-53
2023/07/31 07:44:51;;;;;;;3.60;1.50;;;;;;;;;;5042292;28;20213;-54
2023/07/31 07:47:17;;;;;;;5.28;1.83;;;;;;;;;;5041328;28;20209;-53
2023/07/31 07:49:43;;;;;;;3.08;1.60;;;;;;;;;;5040392;28;20240;-54
2023/07/31 07:52:10;;;;;;;3.50;1.45;;;;;;;;;;5040226;28;20214;-55
2023/07/31 07:54:36;;;;;;;3.17;1.67;;;;;;;;;;5044492;28;20209;-53
2023/07/31 07:57:03;;;;;;;6.47;2.00;;;;;;;;;;5055549;28;20445;-54
2023/07/31 07:59:29;;;;;;;5.55;2.08;;;;;;;;;;5038722;28;20516;-53
2023/07/31 08:01:57;;;;;;;3.05;1.70;;;;;;;;;;5045159;28;20226;-53
2023/07/31 08:04:23;;;;;;;3.95;1.73;;;;;;;;;;5043523;28;20208;-55
2023/07/31 08:06:50;;;;;;;3.97;1.90;;;;;;;;;;5045993;28;20444;-56
2023/07/31 08:09:16;;;;;;;2.05;1.90;;;;;;;;;;5052890;28;20216;-55
2023/07/31 08:11:42;;;;;;;6.07;1.80;;;;;;;;;;5040712;28;20432;-54
2023/07/31 08:14:08;;;;;;;6.60;1.83;;;;;;;;;;5038487;28;20222;-53
2023/07/31 08:16:35;;;;;;;2.70;1.65;;;;;;;;;;5049784;28;20236;-54
2023/07/31 08:19:02;;;;;;;4.22;2.05;;;;;;;;;;5050428;28;20236;-55
2023/07/31 08:21:29;;;;;;;5.35;1.90;;;;;;;;;;5055554;28;20212;-54
2023/07/31 08:23:55;;;;;;;2.33;1.95;;;;;;;;;;5055831;28;20444;-55
2023/07/31 08:26:22;;;;;;;5.18;2.05;;;;;;;;;;5049182;28;20309;-54
2023/07/31 08:28:48;;;;;;;4.05;1.50;;;;;;;;;;5044255;28;20461;-56
2023/07/31 08:31:14;;;;;;;5.78;2.13;;;;;;;;;;5049535;28;20213;-56
2023/07/31 08:33:41;;;;;;;3.75;1.88;;;;;;;;;;5042256;28;20219;-55
2023/07/31 08:36:08;;;;;;;4.47;1.83;;;;;;;;;;5053342;28;20434;-53
2023/07/31 08:38:35;;;;;;;3.45;1.60;;;;;;;;;;5050756;28;20212;-54
2023/07/31 08:41:01;;;;;;;4.95;1.73;;;;;;;;;;5043762;28;20536;-53
2023/07/31 08:43:27;;;;;;;5.75;2.10;;;;;;;;;;5044117;28;20216;-55
2023/07/31 08:45:54;;;;;;;5.90;1.80;;;;;;;;;;5055583;28;20414;-54
2023/07/31 08:48:22;;;;;;;2.70;1.75;;;;;;;;;;5055372;28;20543;-54
2023/07/31 08:50:48;;;;;;;4.97;1.75;;;;;;;;;;5055725;28;20201;-55
2023/07/31 08:53:16;;;;;;;5.35;1.88;;;;;;;;;;5048056;28;20417;-56
2023/07/31 08:55:43;;;;;;;5.43;2.05;;;;;;;;;;5055628;28;20312;-57
2023/07/31 08:58:10;;;;;;;3.75;1.85;;;;;;;;;;5049092;28;20253;-55
2023/07/31 09:00:37;;;;;;;5.03;2.05;;;;;;;;;;5051261;28;20445;-54
2023/07/31 09:03:04;;;;;;;4.68;2.17;;;;;;;;;;5055371;28;20240;-53
2023/07/31 09:05:31;;;;;;;6.68;2.03;;;;;;;;;;5055437;28;20556;-55
2023/07/31 09:07:57;;;;;;;3.63;2.10;;;;;;;;;;5050234;28;20424;-53
2023/07/31 09:10:25;;;;;;;3.42;2.08;;;;;;;;;;5047502;28;20215;-54
2023/07/31 09:12:52;;;;;;;3.13;1.90;;;;;;;;;;5049458;28;20209;-55
2023/07/31 09:15:19;;;;;;;4.90;2.13;;;;;;;;;;5052920;28;20225;-55
2023/07/31 09:17:45;;;;;;;4.05;1.80;;;;;;;;;;5055241;28;20211;-53
2023/07/31 09:20:15;;;;;;;6.10;2.17;;;;;;;;;;5048034;28;20393;-54
2023/07/31 09:22:42;;;;;;;3.72;2.17;;;;;;;;;;5055222;28;20209;-54
2023/07/31 09:25:15;;;;;;;4.80;1.92;;;;;;;;;;5058965;28;20416;-54
2023/07/31 09:27:49;;;;;;;3.50;2.00;;;;;;;;;;5048244;28;20570;-55
2023/07/31 09:30:16;;;;;;;2.20;1.80;;;;;;;;;;5058517;28;20393;-56
2023/07/31 09:32:43;;;;;;;5.10;2.15;;;;;;;;;;5058860;28;20235;-56
2023/07/31 09:35:20;;;;;;;3.95;2.17;;;;;;;;;;5058547;28;20204;-55
2023/07/31 09:37:48;;;;;;;3.92;1.83;;;;;;;;;;5049482;28;20483;-54
2023/07/31 09:40:25;;;;;;;2.15;1.95;;;;;;;;;;5056843;28;20396;-54
2023/07/31 09:42:53;;;;;;;3.13;2.35;;;;;;;;;;5046081;28;20409;-54
2023/07/31 09:45:19;;;;;;;7.68;2.28;;;;;;;;;;5052878;28;20475;-56
2023/07/31 09:47:47;;;;;;;3.92;2.15;;;;;;;;;;5058413;28;20220;-54
2023/07/31 09:50:14;;;;;;;2.63;1.95;;;;;;;;;;5054499;28;20255;-56
2023/07/31 09:52:41;;;;;;;3.17;2.22;;;;;;;;;;5052041;28;20209;-56
2023/07/31 09:55:08;;;;;;;4.03;2.20;;;;;;;;;;5056545;28;20539;-56
2023/07/31 09:57:34;;;;;;;3.22;2.00;;;;;;;;;;5057968;28;20232;-54
2023/07/31 10:00:02;;;;;;;4.22;2.17;;;;;;;;;;5050766;28;20204;-55
2023/07/31 10:02:28;;;;;;;3.30;2.08;;;;;;;;;;5057485;28;20410;-54
2023/07/31 10:04:58;;;;;;;3.75;1.83;;;;;;;;;;5058117;28;20219;-56
2023/07/31 10:07:26;;;;;;;2.47;1.98;;;;;;;;;;5053681;28;20212;-56
2023/07/31 10:09:53;;;;;;;4.10;1.98;;;;;;;;;;5058348;28;20216;-55
2023/07/31 10:12:20;;;;;;;4.47;2.15;;;;;;;;;;5053273;28;20213;-55
2023/07/31 10:14:46;;;;;;;5.47;2.20;;;;;;;;;;5052452;28;20215;-54
2023/07/31 10:17:14;;;;;;;3.20;2.00;;;;;;;;;;5051157;28;20226;-54
2023/07/31 10:19:41;;;;;;;5.07;2.10;;;;;;;;;;5058179;28;20240;-55
2023/07/31 10:22:08;;;;;;;7.53;2.45;;;;;;;;;;5050515;28;20220;-54
2023/07/31 10:24:35;;;;;;;4.72;1.83;;;;;;;;;;5050928;28;20543;-54
2023/07/31 10:27:02;;;;;;;5.18;2.25;;;;;;;;;;5054574;28;20555;-54
2023/07/31 10:29:30;;;;;;;4.30;1.88;;;;;;;;;;5043512;28;20215;-55
2023/07/31 10:31:57;;;;;;;4.72;2.03;;;;;;;;;;5046088;28;20556;-54
2023/07/31 10:34:24;;;;;;;5.30;2.22;;;;;;;;;;5057306;28;20224;-55
2023/07/31 10:36:51;;;;;;;4.47;2.38;;;;;;;;;;5057677;28;20221;-54
2023/07/31 10:39:35;;;;;;;3.70;1.98;;;;;;;;;;5054565;28;20548;-53
2023/07/31 10:42:10;;;;;;;4.85;1.90;;;;;;;;;;5044877;28;20517;-54
2023/07/31 10:44:36;;;;;;;2.30;2.10;;;;;;;;;;5051214;28;20236;-54
2023/07/31 10:47:03;;;;;;;8.20;2.13;;;;;;;;;;5052250;28;20235;-55
2023/07/31 10:49:31;;;;;;;8.38;2.47;;;;;;;;;;5047714;28;20220;-54
2023/07/31 10:51:58;;;;;;;4.07;2.25;;;;;;;;;;5055338;28;20208;-54
2023/07/31 10:54:24;;;;;;;5.80;2.25;;;;;;;;;;5054683;28;20547;-56
2023/07/31 10:56:52;;;;;;;2.97;2.15;;;;;;;;;;5054751;28;20237;-54
2023/07/31 10:59:20;;;;;;;5.68;2.13;;;;;;;;;;5054704;28;20214;-55
2023/07/31 11:01:52;;;;;;;4.78;2.00;;;;;;;;;;5053979;28;20492;-54
2023/07/31 11:04:22;;;;;;;2.85;1.85;;;;;;;;;;5054667;28;20220;-56
2023/07/31 11:06:58;;;;;;;2.58;2.00;;;;;;;;;;5054481;28;20378;-55
2023/07/31 11:09:24;;;;;;;4.80;2.30;;;;;;;;;;5051789;28;20224;-56
2023/07/31 11:11:52;;;;;;;4.80;2.05;;;;;;;;;;5053936;28;20287;-55
2023/07/31 11:14:18;;;;;;;4.15;2.35;;;;;;;;;;5050243;28;20227;-54
2023/07/31 11:16:44;;;;;;;3.83;1.85;;;;;;;;;;5053860;28;20551;-54
2023/07/31 11:19:11;;;;;;;4.95;2.38;;;;;;;;;;5049820;28;20525;-54
2023/07/31 11:21:37;;;;;;;2.70;2.30;;;;;;;;;;5051241;28;20419;-56
2023/07/31 11:24:05;;;;;;;3.60;2.05;;;;;;;;;;5058993;28;20212;-53
2023/07/31 11:26:31;;;;;;;4.43;2.33;;;;;;;;;;5060486;28;20516;-55
2023/07/31 11:28:57;;;;;;;3.60;2.22;;;;;;;;;;5057057;28;20233;-54
2023/07/31 11:31:24;;;;;;;5.90;2.30;;;;;;;;;;5051337;28;20268;-55
2023/07/31 11:33:50;;;;;;;4.78;2.13;;;;;;;;;;5064744;28;20208;-54
2023/07/31 11:36:17;;;;;;;2.70;2.15;;;;;;;;;;5059565;28;20575;-55
2023/07/31 11:38:43;;;;;;;2.95;2.58;;;;;;;;;;5059653;28;20231;-56
2023/07/31 11:41:11;;;;;;;3.75;1.85;;;;;;;;;;5059449;28;20279;-55
2023/07/31 11:43:37;;;;;;;3.80;1.90;;;;;;;;;;5059315;28;20213;-55
2023/07/31 11:46:04;;;;;;;4.28;2.25;;;;;;;;;;5058853;28;20214;-54
2023/07/31 11:48:33;;;;;;;3.95;2.10;;;;;;;;;;5059464;28;20400;-55
2023/07/31 11:51:00;;;;;;;2.75;2.53;;;;;;;;;;5060164;28;20571;-55
2023/07/31 11:53:30;;;;;;;3.30;2.10;;;;;;;;;;5058546;28;20419;-54
2023/07/31 11:55:58;;;;;;;4.47;2.50;;;;;;;;;;5059730;28;20220;-53
2023/07/31 11:58:26;;;;;;;3.78;2.60;;;;;;;;;;5059415;28;20215;-53
2023/07/31 12:00:53;;;;;;;2.67;2.00;;;;;;;;;;5058989;28;20538;-55
2023/07/31 12:03:19;;;;;;;3.95;2.15;;;;;;;;;;5055901;28;20519;-53
2023/07/31 12:05:48;;;;;;;4.45;2.45;;;;;;;;;;5059834;28;20240;-53
2023/07/31 12:08:15;;;;;;;3.13;2.35;;;;;;;;;;5059481;28;20213;-54
2023/07/31 12:10:41;;;;;;;4.10;2.53;;;;;;;;;;5059612;28;20223;-55
2023/07/31 12:13:10;;;;;;;4.53;2.60;;;;;;;;;;5059018;28;20534;-54
2023/07/31 12:15:39;;;;;;;8.52;2.50;;;;;;;;;;5051970;28;20247;-54
2023/07/31 12:18:06;;;;;;;4.35;2.33;;;;;;;;;;5051977;28;20240;-58
2023/07/31 12:20:33;;;;;;;2.85;2.20;;;;;;;;;;5049885;28;20212;-55
2023/07/31 12:23:00;;;;;;;4.82;2.70;;;;;;;;;;5050103;28;20252;-55
2023/07/31 12:25:29;;;;;;;3.72;2.47;;;;;;;;;;5050892;28;20209;-53
2023/07/31 12:27:56;;;;;;;7.47;2.45;;;;;;;;;;5041810;28;20422;-53
2023/07/31 12:30:28;;;;;;;4.20;2.55;;;;;;;;;;5048796;28;20442;-54
2023/07/31 12:32:56;;;;;;;5.30;2.40;;;;;;;;;;5045109;28;20236;-55
2023/07/31 12:35:22;;;;;;;5.63;2.13;;;;;;;;;;5053307;28;20227;-53
2023/07/31 12:37:49;;;;;;;5.97;2.17;;;;;;;;;;5052568;28;20240;-53
2023/07/31 12:40:15;;;;;;;3.03;2.55;;;;;;;;;;5045646;28;20713;-56
2023/07/31 12:42:41;;;;;;;4.68;2.25;;;;;;;;;;5050551;28;20232;-54
2023/07/31 12:45:08;;;;;;;4.40;2.65;;;;;;;;;;5038490;28;20220;-53
2023/07/31 12:47:34;;;;;;;5.43;2.28;;;;;;;;;;5054416;28;20469;-53
2023/07/31 12:50:02;;;;;;;2.88;2.30;;;;;;;;;;5050286;28;20219;-53
2023/07/31 12:52:28;;;;;;;4.18;2.17;;;;;;;;;;5050787;28;20217;-55
2023/07/31 12:54:55;;;;;;;4.15;2.67;;;;;;;;;;5045545;28;20239;-53
2023/07/31 12:57:21;;;;;;;4.28;2.67;;;;;;;;;;5046144;28;20228;-54
2023/07/31 12:59:48;;;;;;;3.28;2.28;;;;;;;;;;5047126;28;20204;-53
2023/07/31 13:02:14;;;;;;;3.17;2.30;;;;;;;;;;5053619;28;20414;-54
2023/07/31 13:04:40;;;;;;;2.55;2.22;;;;;;;;;;5054198;28;20389;-53
2023/07/31 13:07:08;;;;;;;7.45;2.40;;;;;;;;;;5048788;28;20544;-54
2023/07/31 13:09:34;;;;;;;4.00;2.20;;;;;;;;;;5059146;28;20209;-54
2023/07/31 13:12:00;;;;;;;3.25;2.30;;;;;;;;;;5051115;28;20213;-54
2023/07/31 13:14:27;;;;;;;2.17;2.03;;;;;;;;;;5057476;28;20213;-55
2023/07/31 13:16:53;;;;;;;4.07;2.22;;;;;;;;;;5052633;28;20267;-54
2023/07/31 13:19:19;;;;;;;4.05;2.60;;;;;;;;;;5058794;28;20284;-56
2023/07/31 13:21:46;;;;;;;5.10;2.35;;;;;;;;;;5059461;28;20213;-54
2023/07/31 13:24:13;;;;;;;3.55;2.40;;;;;;;;;;5053171;28;20551;-55
2023/07/31 13:26:40;;;;;;;4.20;2.20;;;;;;;;;;5052227;28;20430;-55
2023/07/31 13:29:06;;;;;;;4.57;2.40;;;;;;;;;;5058060;28;20493;-54
2023/07/31 13:31:32;;;;;;;4.72;2.25;;;;;;;;;;5054716;28;20296;-55
2023/07/31 13:33:59;;;;;;;6.28;2.47;;;;;;;;;;5058844;28;20221;-54
2023/07/31 13:36:25;;;;;;;4.32;2.22;;;;;;;;;;5053162;28;20212;-55
2023/07/31 13:38:51;;;;;;;2.35;2.15;;;;;;;;;;5058235;28;20216;-54
2023/07/31 13:41:19;;;;;;;2.50;2.10;;;;;;;;;;5052512;28;20217;-54
2023/07/31 13:43:45;;;;;;;3.78;2.65;;;;;;;;;;5058726;28;20754;-53
2023/07/31 13:46:11;;;;;;;3.10;2.30;;;;;;;;;;5053010;28;20442;-54
2023/07/31 13:48:38;;;;;;;4.47;2.40;;;;;;;;;;5056502;28;20207;-54
2023/07/31 13:51:04;;;;;;;3.42;2.28;;;;;;;;;;5058341;28;20548;-53
2023/07/31 13:53:30;;;;;;;3.53;2.45;;;;;;;;;;5047003;28;20543;-55
2023/07/31 13:55:57;;;;;;;2.35;2.15;;;;;;;;;;5056293;28;20510;-54
2023/07/31 13:58:24;;;;;;;2.88;2.00;;;;;;;;;;5047723;28;20220;-54
2023/07/31 14:00:51;;;;;;;3.80;2.17;;;;;;;;;;5050990;28;20236;-54
2023/07/31 14:03:17;;;;;;;5.45;2.55;;;;;;;;;;5049938;28;20212;-56
2023/07/31 14:05:43;;;;;;;5.80;2.35;;;;;;;;;;5050407;28;20521;-56
2023/07/31 14:08:09;;;;;;;2.28;2.08;;;;;;;;;;5056193;28;20231;-56
2023/07/31 14:10:36;;;;;;;4.10;2.92;;;;;;;;;;5057300;28;20216;-55
2023/07/31 14:13:02;;;;;;;3.05;2.33;;;;;;;;;;5046269;28;20216;-55
2023/07/31 14:15:31;;;;;;;2.22;2.03;;;;;;;;;;5057615;28;20212;-54
2023/07/31 14:17:58;;;;;;;3.08;2.25;;;;;;;;;;5053005;28;20225;-55
2023/07/31 14:20:24;;;;;;;3.40;2.13;;;;;;;;;;5055606;28;20215;-54
2023/07/31 14:22:50;;;;;;;4.35;2.25;;;;;;;;;;5057520;28;20209;-56
2023/07/31 14:25:16;;;;;;;4.45;2.40;;;;;;;;;;5054919;28;20634;-54
2023/07/31 14:27:43;;;;;;;3.40;2.20;;;;;;;;;;5056952;28;20438;-55
2023/07/31 14:30:09;;;;;;;2.50;2.22;;;;;;;;;;5051328;28;20217;-55
2023/07/31 14:32:37;;;;;;;2.88;2.13;;;;;;;;;;5049470;28;20216;-55
2023/07/31 14:35:04;;;;;;;2.88;2.28;;;;;;;;;;5057714;28;20213;-55
2023/07/31 14:37:37;;;;;;;3.85;2.47;;;;;;;;;;5048519;28;20225;-53
2023/07/31 14:40:04;;;;;;;6.30;2.55;;;;;;;;;;5051614;28;20213;-54
2023/07/31 14:42:30;;;;;;;2.55;2.15;;;;;;;;;;5044742;28;20214;-55